sensor_id;sensor_type;location;lat;lon;timestamp;P1;durP1;ratioP1;P2;durP2;ratioP2
47804;SDS011;33568;45.286;9.900;2022-07-29T00:01:00;4.93;;;2.80;;
47804;SDS011;33568;45.286;9.900;2022-07-29T00:03:26;3.95;;;2.75;;
47804;SDS011;33568;45.286;9.900;2022-07-29T00:05:53;3.10;;;2.72;;
47804;SDS011;33568;45.286;9.900;2022-07-29T00:08:19;5.05;;;2.92;;
47804;SDS011;33568;45.286;9.900;2022-07-29T00:10:45;4.05;;;2.80;;
47804;SDS011;33568;45.286;9.900;2022-07-29T00:13:12;4.95;;;2.67;;
47804;SDS011;33568;45.286;9.900;2022-07-29T00:15:38;4.63;;;3.08;;
47804;SDS011;33568;45.286;9.900;2022-07-29T00:18:05;6.57;;;3.20;;
47804;SDS011;33568;45.286;9.900;2022-07-29T00:20:31;3.65;;;2.80;;
47804;SDS011;33568;45.286;9.900;2022-07-29T00:22:57;3.63;;;2.50;;
47804;SDS011;33568;45.286;9.900;2022-07-29T00:25:24;3.53;;;2.55;;
47804;SDS011;33568;45.286;9.900;2022-07-29T00:27:50;5.47;;;3.00;;
47804;SDS011;33568;45.286;9.900;2022-07-29T00:30:17;3.90;;;2.50;;
47804;SDS011;33568;45.286;9.900;2022-07-29T00:32:43;3.85;;;3.20;;
47804;SDS011;33568;45.286;9.900;2022-07-29T00:35:09;6.63;;;3.58;;
47804;SDS011;33568;45.286;9.900;2022-07-29T00:37:57;5.32;;;3.15;;
47804;SDS011;33568;45.286;9.900;2022-07-29T00:40:23;6.85;;;3.17;;
47804;SDS011;33568;45.286;9.900;2022-07-29T00:42:51;5.70;;;2.70;;
47804;SDS011;33568;45.286;9.900;2022-07-29T00:45:17;4.57;;;2.92;;
47804;SDS011;33568;45.286;9.900;2022-07-29T00:47:44;5.40;;;2.90;;
47804;SDS011;33568;45.286;9.900;2022-07-29T00:50:11;3.45;;;2.90;;
47804;SDS011;33568;45.286;9.900;2022-07-29T00:52:39;6.60;;;2.85;;
47804;SDS011;33568;45.286;9.900;2022-07-29T00:55:07;3.58;;;3.00;;
47804;SDS011;33568;45.286;9.900;2022-07-29T00:57:35;3.65;;;2.90;;
47804;SDS011;33568;45.286;9.900;2022-07-29T01:00:03;4.13;;;2.70;;
47804;SDS011;33568;45.286;9.900;2022-07-29T01:02:31;4.13;;;3.03;;
47804;SDS011;33568;45.286;9.900;2022-07-29T01:04:57;4.38;;;3.00;;
47804;SDS011;33568;45.286;9.900;2022-07-29T01:07:24;7.82;;;3.58;;
47804;SDS011;33568;45.286;9.900;2022-07-29T01:09:52;2.72;;;2.50;;
47804;SDS011;33568;45.286;9.900;2022-07-29T01:12:21;5.13;;;3.42;;
47804;SDS011;33568;45.286;9.900;2022-07-29T01:14:50;5.03;;;2.80;;
47804;SDS011;33568;45.286;9.900;2022-07-29T01:31:12;5.55;;;2.60;;
47804;SDS011;33568;45.286;9.900;2022-07-29T01:33:45;3.42;;;2.60;;
47804;SDS011;33568;45.286;9.900;2022-07-29T01:36:22;3.42;;;2.40;;
47804;SDS011;33568;45.286;9.900;2022-07-29T01:39:12;3.47;;;2.45;;
47804;SDS011;33568;45.286;9.900;2022-07-29T01:41:56;3.55;;;2.60;;
47804;SDS011;33568;45.286;9.900;2022-07-29T01:45:26;4.18;;;2.97;;
47804;SDS011;33568;45.286;9.900;2022-07-29T01:50:31;3.40;;;2.40;;
47804;SDS011;33568;45.286;9.900;2022-07-29T01:53:01;3.13;;;2.50;;
47804;SDS011;33568;45.286;9.900;2022-07-29T01:55:34;3.58;;;2.38;;
47804;SDS011;33568;45.286;9.900;2022-07-29T02:00:33;2.83;;;2.50;;
47804;SDS011;33568;45.286;9.900;2022-07-29T02:03:05;2.80;;;2.33;;
47804;SDS011;33568;45.286;9.900;2022-07-29T02:05:35;4.65;;;2.38;;
47804;SDS011;33568;45.286;9.900;2022-07-29T02:08:04;2.40;;;2.10;;
47804;SDS011;33568;45.286;9.900;2022-07-29T02:10:32;5.18;;;2.53;;
47804;SDS011;33568;45.286;9.900;2022-07-29T02:13:00;2.90;;;2.60;;
47804;SDS011;33568;45.286;9.900;2022-07-29T02:15:29;3.60;;;2.40;;
47804;SDS011;33568;45.286;9.900;2022-07-29T02:18:07;4.63;;;2.30;;
47804;SDS011;33568;45.286;9.900;2022-07-29T02:20:38;5.20;;;2.47;;
47804;SDS011;33568;45.286;9.900;2022-07-29T02:23:09;2.33;;;1.90;;
47804;SDS011;33568;45.286;9.900;2022-07-29T02:25:37;3.17;;;2.40;;
47804;SDS011;33568;45.286;9.900;2022-07-29T02:28:05;2.55;;;2.13;;
47804;SDS011;33568;45.286;9.900;2022-07-29T02:30:32;2.88;;;2.10;;
47804;SDS011;33568;45.286;9.900;2022-07-29T02:33:01;16.50;;;2.35;;
47804;SDS011;33568;45.286;9.900;2022-07-29T02:35:30;2.95;;;2.20;;
47804;SDS011;33568;45.286;9.900;2022-07-29T02:37:56;3.03;;;2.22;;
47804;SDS011;33568;45.286;9.900;2022-07-29T02:40:44;3.00;;;2.22;;
47804;SDS011;33568;45.286;9.900;2022-07-29T02:43:12;5.10;;;2.30;;
47804;SDS011;33568;45.286;9.900;2022-07-29T02:45:39;3.53;;;2.17;;
47804;SDS011;33568;45.286;9.900;2022-07-29T02:48:06;3.42;;;2.30;;
47804;SDS011;33568;45.286;9.900;2022-07-29T02:50:44;2.63;;;2.08;;
47804;SDS011;33568;45.286;9.900;2022-07-29T02:53:17;4.35;;;2.83;;
47804;SDS011;33568;45.286;9.900;2022-07-29T02:55:47;5.85;;;2.88;;
47804;SDS011;33568;45.286;9.900;2022-07-29T02:58:32;3.70;;;2.70;;
47804;SDS011;33568;45.286;9.900;2022-07-29T03:01:11;4.30;;;2.55;;
47804;SDS011;33568;45.286;9.900;2022-07-29T03:03:42;3.28;;;2.95;;
47804;SDS011;33568;45.286;9.900;2022-07-29T03:06:12;3.28;;;2.60;;
47804;SDS011;33568;45.286;9.900;2022-07-29T03:08:41;4.15;;;3.75;;
47804;SDS011;33568;45.286;9.900;2022-07-29T03:11:08;5.90;;;4.78;;
47804;SDS011;33568;45.286;9.900;2022-07-29T03:13:36;3.83;;;3.15;;
47804;SDS011;33568;45.286;9.900;2022-07-29T03:16:03;3.03;;;2.40;;
47804;SDS011;33568;45.286;9.900;2022-07-29T03:18:31;6.63;;;3.92;;
47804;SDS011;33568;45.286;9.900;2022-07-29T03:20:58;4.78;;;4.22;;
47804;SDS011;33568;45.286;9.900;2022-07-29T03:23:26;6.55;;;4.97;;
47804;SDS011;33568;45.286;9.900;2022-07-29T03:25:53;6.60;;;4.07;;
47804;SDS011;33568;45.286;9.900;2022-07-29T03:28:21;3.83;;;2.67;;
47804;SDS011;33568;45.286;9.900;2022-07-29T03:30:48;4.70;;;3.45;;
47804;SDS011;33568;45.286;9.900;2022-07-29T03:33:16;4.50;;;3.60;;
47804;SDS011;33568;45.286;9.900;2022-07-29T03:35:42;3.40;;;2.90;;
47804;SDS011;33568;45.286;9.900;2022-07-29T03:38:09;6.78;;;3.97;;
47804;SDS011;33568;45.286;9.900;2022-07-29T03:40:37;4.28;;;2.90;;
47804;SDS011;33568;45.286;9.900;2022-07-29T03:43:08;7.28;;;5.82;;
47804;SDS011;33568;45.286;9.900;2022-07-29T03:45:35;4.95;;;4.15;;
47804;SDS011;33568;45.286;9.900;2022-07-29T03:48:07;9.13;;;7.10;;
47804;SDS011;33568;45.286;9.900;2022-07-29T03:50:36;10.95;;;8.90;;
47804;SDS011;33568;45.286;9.900;2022-07-29T03:53:02;10.40;;;8.63;;
47804;SDS011;33568;45.286;9.900;2022-07-29T03:55:30;12.10;;;9.38;;
47804;SDS011;33568;45.286;9.900;2022-07-29T03:58:02;9.68;;;8.35;;
47804;SDS011;33568;45.286;9.900;2022-07-29T04:00:29;9.65;;;8.57;;
47804;SDS011;33568;45.286;9.900;2022-07-29T04:02:56;9.20;;;8.32;;
47804;SDS011;33568;45.286;9.900;2022-07-29T04:05:23;11.57;;;9.45;;
47804;SDS011;33568;45.286;9.900;2022-07-29T04:07:50;10.45;;;9.05;;
47804;SDS011;33568;45.286;9.900;2022-07-29T04:10:16;9.88;;;8.48;;
47804;SDS011;33568;45.286;9.900;2022-07-29T04:12:44;10.13;;;8.63;;
47804;SDS011;33568;45.286;9.900;2022-07-29T04:15:10;8.65;;;7.60;;
47804;SDS011;33568;45.286;9.900;2022-07-29T04:17:39;10.68;;;9.05;;
47804;SDS011;33568;45.286;9.900;2022-07-29T04:20:05;12.25;;;8.98;;
47804;SDS011;33568;45.286;9.900;2022-07-29T04:22:34;12.23;;;9.07;;
47804;SDS011;33568;45.286;9.900;2022-07-29T04:25:02;9.57;;;8.38;;
47804;SDS011;33568;45.286;9.900;2022-07-29T04:27:29;10.27;;;8.10;;
47804;SDS011;33568;45.286;9.900;2022-07-29T04:29:55;9.68;;;8.70;;
47804;SDS011;33568;45.286;9.900;2022-07-29T04:32:22;10.48;;;8.35;;
47804;SDS011;33568;45.286;9.900;2022-07-29T04:34:49;12.88;;;10.50;;
47804;SDS011;33568;45.286;9.900;2022-07-29T04:37:16;11.07;;;9.93;;
47804;SDS011;33568;45.286;9.900;2022-07-29T04:39:42;10.95;;;9.13;;
47804;SDS011;33568;45.286;9.900;2022-07-29T04:42:09;13.73;;;9.48;;
47804;SDS011;33568;45.286;9.900;2022-07-29T04:44:35;11.00;;;9.70;;
47804;SDS011;33568;45.286;9.900;2022-07-29T04:47:01;11.93;;;10.13;;
47804;SDS011;33568;45.286;9.900;2022-07-29T04:49:28;12.52;;;10.77;;
47804;SDS011;33568;45.286;9.900;2022-07-29T04:51:54;14.68;;;11.30;;
47804;SDS011;33568;45.286;9.900;2022-07-29T04:54:21;13.68;;;10.43;;
47804;SDS011;33568;45.286;9.900;2022-07-29T04:56:48;14.52;;;10.90;;
47804;SDS011;33568;45.286;9.900;2022-07-29T04:59:14;13.98;;;10.07;;
47804;SDS011;33568;45.286;9.900;2022-07-29T05:01:40;12.35;;;11.15;;
47804;SDS011;33568;45.286;9.900;2022-07-29T05:04:07;13.75;;;11.98;;
47804;SDS011;33568;45.286;9.900;2022-07-29T05:06:36;14.65;;;12.45;;
47804;SDS011;33568;45.286;9.900;2022-07-29T05:09:03;13.40;;;11.98;;
47804;SDS011;33568;45.286;9.900;2022-07-29T05:11:29;15.75;;;10.45;;
47804;SDS011;33568;45.286;9.900;2022-07-29T05:13:55;13.82;;;10.73;;
47804;SDS011;33568;45.286;9.900;2022-07-29T05:16:22;15.25;;;11.10;;
47804;SDS011;33568;45.286;9.900;2022-07-29T05:18:48;13.52;;;12.13;;
47804;SDS011;33568;45.286;9.900;2022-07-29T05:21:15;12.77;;;10.30;;
47804;SDS011;33568;45.286;9.900;2022-07-29T05:23:41;11.05;;;9.05;;
47804;SDS011;33568;45.286;9.900;2022-07-29T05:26:08;12.23;;;9.63;;
47804;SDS011;33568;45.286;9.900;2022-07-29T05:28:34;15.25;;;10.73;;
47804;SDS011;33568;45.286;9.900;2022-07-29T05:31:04;11.95;;;10.70;;
47804;SDS011;33568;45.286;9.900;2022-07-29T05:33:30;14.23;;;9.27;;
47804;SDS011;33568;45.286;9.900;2022-07-29T05:35:58;14.45;;;10.07;;
47804;SDS011;33568;45.286;9.900;2022-07-29T05:38:24;9.57;;;8.73;;
47804;SDS011;33568;45.286;9.900;2022-07-29T05:40:51;11.63;;;8.70;;
47804;SDS011;33568;45.286;9.900;2022-07-29T05:43:17;12.85;;;8.68;;
47804;SDS011;33568;45.286;9.900;2022-07-29T05:45:43;9.48;;;8.23;;
47804;SDS011;33568;45.286;9.900;2022-07-29T05:48:10;16.23;;;9.00;;
47804;SDS011;33568;45.286;9.900;2022-07-29T05:50:36;11.00;;;8.32;;
47804;SDS011;33568;45.286;9.900;2022-07-29T05:53:02;16.52;;;8.55;;
47804;SDS011;33568;45.286;9.900;2022-07-29T05:55:29;16.88;;;7.45;;
47804;SDS011;33568;45.286;9.900;2022-07-29T05:57:56;18.42;;;5.95;;
47804;SDS011;33568;45.286;9.900;2022-07-29T06:00:23;19.98;;;5.03;;
47804;SDS011;33568;45.286;9.900;2022-07-29T06:02:50;8.88;;;4.57;;
47804;SDS011;33568;45.286;9.900;2022-07-29T06:05:17;17.50;;;4.05;;
47804;SDS011;33568;45.286;9.900;2022-07-29T06:07:44;10.40;;;4.10;;
47804;SDS011;33568;45.286;9.900;2022-07-29T06:10:10;7.10;;;4.03;;
47804;SDS011;33568;45.286;9.900;2022-07-29T06:12:36;9.77;;;4.07;;
47804;SDS011;33568;45.286;9.900;2022-07-29T06:15:03;7.68;;;4.68;;
47804;SDS011;33568;45.286;9.900;2022-07-29T06:17:30;8.73;;;3.00;;
47804;SDS011;33568;45.286;9.900;2022-07-29T06:19:56;7.18;;;3.17;;
47804;SDS011;33568;45.286;9.900;2022-07-29T06:22:22;7.63;;;3.10;;
47804;SDS011;33568;45.286;9.900;2022-07-29T06:24:49;5.35;;;3.70;;
47804;SDS011;33568;45.286;9.900;2022-07-29T06:27:16;6.25;;;3.35;;
47804;SDS011;33568;45.286;9.900;2022-07-29T06:29:42;6.78;;;2.83;;
47804;SDS011;33568;45.286;9.900;2022-07-29T06:32:09;5.00;;;2.33;;
47804;SDS011;33568;45.286;9.900;2022-07-29T06:34:35;3.65;;;2.22;;
47804;SDS011;33568;45.286;9.900;2022-07-29T06:37:05;3.53;;;2.50;;
47804;SDS011;33568;45.286;9.900;2022-07-29T06:39:35;6.53;;;5.53;;
47804;SDS011;33568;45.286;9.900;2022-07-29T06:42:05;5.30;;;2.92;;
47804;SDS011;33568;45.286;9.900;2022-07-29T06:44:33;5.32;;;2.63;;
47804;SDS011;33568;45.286;9.900;2022-07-29T06:47:00;3.78;;;2.63;;
47804;SDS011;33568;45.286;9.900;2022-07-29T06:49:26;5.22;;;2.60;;
47804;SDS011;33568;45.286;9.900;2022-07-29T06:51:54;4.72;;;2.88;;
47804;SDS011;33568;45.286;9.900;2022-07-29T06:54:21;3.40;;;2.80;;
47804;SDS011;33568;45.286;9.900;2022-07-29T06:56:48;2.28;;;2.05;;
47804;SDS011;33568;45.286;9.900;2022-07-29T06:59:14;3.30;;;2.40;;
47804;SDS011;33568;45.286;9.900;2022-07-29T07:01:41;3.60;;;2.55;;
47804;SDS011;33568;45.286;9.900;2022-07-29T07:04:08;7.05;;;2.97;;
47804;SDS011;33568;45.286;9.900;2022-07-29T07:06:35;8.30;;;4.75;;
47804;SDS011;33568;45.286;9.900;2022-07-29T07:09:02;4.15;;;2.65;;
47804;SDS011;33568;45.286;9.900;2022-07-29T07:11:29;5.45;;;2.30;;
47804;SDS011;33568;45.286;9.900;2022-07-29T07:13:56;3.80;;;3.15;;
47804;SDS011;33568;45.286;9.900;2022-07-29T07:16:22;5.72;;;2.50;;
47804;SDS011;33568;45.286;9.900;2022-07-29T07:18:51;2.70;;;2.45;;
47804;SDS011;33568;45.286;9.900;2022-07-29T07:21:17;3.47;;;2.80;;
47804;SDS011;33568;45.286;9.900;2022-07-29T07:23:43;5.68;;;3.42;;
47804;SDS011;33568;45.286;9.900;2022-07-29T07:26:10;7.95;;;5.57;;
47804;SDS011;33568;45.286;9.900;2022-07-29T07:28:36;4.70;;;4.15;;
47804;SDS011;33568;45.286;9.900;2022-07-29T07:31:03;5.95;;;3.53;;
47804;SDS011;33568;45.286;9.900;2022-07-29T07:33:29;6.03;;;2.92;;
47804;SDS011;33568;45.286;9.900;2022-07-29T07:35:55;4.95;;;2.38;;
47804;SDS011;33568;45.286;9.900;2022-07-29T07:38:22;5.43;;;3.70;;
47804;SDS011;33568;45.286;9.900;2022-07-29T07:40:48;3.95;;;2.70;;
47804;SDS011;33568;45.286;9.900;2022-07-29T07:43:14;5.95;;;4.13;;
47804;SDS011;33568;45.286;9.900;2022-07-29T07:45:41;7.32;;;5.82;;
47804;SDS011;33568;45.286;9.900;2022-07-29T07:48:07;4.18;;;3.30;;
47804;SDS011;33568;45.286;9.900;2022-07-29T07:50:36;2.40;;;2.20;;
47804;SDS011;33568;45.286;9.900;2022-07-29T07:53:02;6.88;;;5.30;;
47804;SDS011;33568;45.286;9.900;2022-07-29T07:55:28;3.50;;;2.83;;
47804;SDS011;33568;45.286;9.900;2022-07-29T07:57:55;3.03;;;2.58;;
47804;SDS011;33568;45.286;9.900;2022-07-29T08:00:21;6.20;;;2.92;;
47804;SDS011;33568;45.286;9.900;2022-07-29T08:02:48;4.13;;;2.45;;
47804;SDS011;33568;45.286;9.900;2022-07-29T08:05:15;2.88;;;2.53;;
47804;SDS011;33568;45.286;9.900;2022-07-29T08:07:46;6.30;;;3.10;;
47804;SDS011;33568;45.286;9.900;2022-07-29T08:10:13;5.50;;;4.97;;
47804;SDS011;33568;45.286;9.900;2022-07-29T08:13:05;4.20;;;3.47;;
47804;SDS011;33568;45.286;9.900;2022-07-29T08:15:33;5.03;;;3.88;;
47804;SDS011;33568;45.286;9.900;2022-07-29T08:18:00;12.52;;;6.45;;
47804;SDS011;33568;45.286;9.900;2022-07-29T08:20:27;5.82;;;3.92;;
47804;SDS011;33568;45.286;9.900;2022-07-29T08:22:53;3.97;;;2.55;;
47804;SDS011;33568;45.286;9.900;2022-07-29T08:25:19;9.27;;;5.90;;
47804;SDS011;33568;45.286;9.900;2022-07-29T08:27:46;7.15;;;4.78;;
47804;SDS011;33568;45.286;9.900;2022-07-29T08:30:13;6.63;;;3.33;;
47804;SDS011;33568;45.286;9.900;2022-07-29T08:32:40;15.20;;;6.50;;
47804;SDS011;33568;45.286;9.900;2022-07-29T08:35:06;6.45;;;3.08;;
47804;SDS011;33568;45.286;9.900;2022-07-29T08:37:33;7.03;;;2.75;;
47804;SDS011;33568;45.286;9.900;2022-07-29T08:40:00;7.00;;;4.22;;
47804;SDS011;33568;45.286;9.900;2022-07-29T08:42:26;3.33;;;2.50;;
47804;SDS011;33568;45.286;9.900;2022-07-29T08:44:53;3.50;;;2.50;;
47804;SDS011;33568;45.286;9.900;2022-07-29T08:47:21;5.50;;;5.00;;
47804;SDS011;33568;45.286;9.900;2022-07-29T08:49:48;8.60;;;4.97;;
47804;SDS011;33568;45.286;9.900;2022-07-29T08:52:18;6.97;;;4.25;;
47804;SDS011;33568;45.286;9.900;2022-07-29T08:54:45;5.75;;;2.78;;
47804;SDS011;33568;45.286;9.900;2022-07-29T08:57:14;4.00;;;2.97;;
47804;SDS011;33568;45.286;9.900;2022-07-29T08:59:42;4.22;;;2.58;;
47804;SDS011;33568;45.286;9.900;2022-07-29T09:02:14;6.80;;;2.83;;
47804;SDS011;33568;45.286;9.900;2022-07-29T09:04:45;3.83;;;3.33;;
47804;SDS011;33568;45.286;9.900;2022-07-29T09:07:14;7.15;;;5.03;;
47804;SDS011;33568;45.286;9.900;2022-07-29T09:09:42;6.10;;;4.50;;
47804;SDS011;33568;45.286;9.900;2022-07-29T09:12:09;7.53;;;6.75;;
47804;SDS011;33568;45.286;9.900;2022-07-29T09:14:40;5.00;;;2.65;;
47804;SDS011;33568;45.286;9.900;2022-07-29T09:17:07;5.40;;;4.07;;
47804;SDS011;33568;45.286;9.900;2022-07-29T09:19:34;3.20;;;2.65;;
47804;SDS011;33568;45.286;9.900;2022-07-29T09:22:03;5.93;;;5.30;;
47804;SDS011;33568;45.286;9.900;2022-07-29T09:24:46;9.05;;;5.70;;
47804;SDS011;33568;45.286;9.900;2022-07-29T09:27:20;3.45;;;3.15;;
47804;SDS011;33568;45.286;9.900;2022-07-29T09:29:57;5.65;;;4.47;;
47804;SDS011;33568;45.286;9.900;2022-07-29T09:32:24;3.85;;;2.60;;
47804;SDS011;33568;45.286;9.900;2022-07-29T09:35:13;3.53;;;2.53;;
47804;SDS011;33568;45.286;9.900;2022-07-29T09:37:47;3.40;;;3.05;;
47804;SDS011;33568;45.286;9.900;2022-07-29T09:40:14;3.42;;;2.95;;
47804;SDS011;33568;45.286;9.900;2022-07-29T09:42:52;3.50;;;2.47;;
47804;SDS011;33568;45.286;9.900;2022-07-29T09:45:26;5.47;;;4.38;;
47804;SDS011;33568;45.286;9.900;2022-07-29T09:47:54;6.13;;;4.72;;
47804;SDS011;33568;45.286;9.900;2022-07-29T09:50:23;2.65;;;2.38;;
47804;SDS011;33568;45.286;9.900;2022-07-29T09:53:04;6.15;;;3.25;;
47804;SDS011;33568;45.286;9.900;2022-07-29T09:55:31;5.38;;;3.95;;
47804;SDS011;33568;45.286;9.900;2022-07-29T09:58:16;3.40;;;2.58;;
47804;SDS011;33568;45.286;9.900;2022-07-29T10:00:45;5.88;;;4.75;;
47804;SDS011;33568;45.286;9.900;2022-07-29T10:03:12;3.72;;;2.47;;
47804;SDS011;33568;45.286;9.900;2022-07-29T10:05:39;6.90;;;5.07;;
47804;SDS011;33568;45.286;9.900;2022-07-29T10:08:07;6.05;;;3.67;;
47804;SDS011;33568;45.286;9.900;2022-07-29T10:10:36;3.85;;;3.38;;
47804;SDS011;33568;45.286;9.900;2022-07-29T10:13:06;6.03;;;2.30;;
47804;SDS011;33568;45.286;9.900;2022-07-29T10:15:38;4.43;;;3.53;;
47804;SDS011;33568;45.286;9.900;2022-07-29T10:18:10;8.60;;;5.20;;
47804;SDS011;33568;45.286;9.900;2022-07-29T10:20:38;6.05;;;3.47;;
47804;SDS011;33568;45.286;9.900;2022-07-29T10:23:05;5.65;;;3.80;;
47804;SDS011;33568;45.286;9.900;2022-07-29T10:25:32;73.68;;;7.18;;
47804;SDS011;33568;45.286;9.900;2022-07-29T10:27:58;9.57;;;4.60;;
47804;SDS011;33568;45.286;9.900;2022-07-29T10:30:25;5.13;;;4.22;;
47804;SDS011;33568;45.286;9.900;2022-07-29T10:38:44;6.20;;;3.70;;
47804;SDS011;33568;45.286;9.900;2022-07-29T10:44:13;52.25;;;5.20;;
47804;SDS011;33568;45.286;9.900;2022-07-29T10:46:45;5.88;;;4.30;;
47804;SDS011;33568;45.286;9.900;2022-07-29T10:49:13;11.85;;;4.47;;
47804;SDS011;33568;45.286;9.900;2022-07-29T10:51:55;10.35;;;4.90;;
47804;SDS011;33568;45.286;9.900;2022-07-29T10:54:36;11.38;;;4.85;;
47804;SDS011;33568;45.286;9.900;2022-07-29T10:57:12;3.63;;;3.30;;
47804;SDS011;33568;45.286;9.900;2022-07-29T11:05:03;5.10;;;3.38;;
47804;SDS011;33568;45.286;9.900;2022-07-29T11:07:32;4.38;;;3.95;;
47804;SDS011;33568;45.286;9.900;2022-07-29T11:15:05;7.28;;;5.20;;
47804;SDS011;33568;45.286;9.900;2022-07-29T11:23:20;7.10;;;6.25;;
47804;SDS011;33568;45.286;9.900;2022-07-29T11:34:17;6.38;;;3.72;;
47804;SDS011;33568;45.286;9.900;2022-07-29T11:39:37;8.68;;;5.25;;
47804;SDS011;33568;45.286;9.900;2022-07-29T11:47:41;9.50;;;5.80;;
47804;SDS011;33568;45.286;9.900;2022-07-29T11:50:12;8.02;;;5.00;;
47804;SDS011;33568;45.286;9.900;2022-07-29T11:52:41;6.93;;;5.45;;
47804;SDS011;33568;45.286;9.900;2022-07-29T11:55:11;4.80;;;3.17;;
47804;SDS011;33568;45.286;9.900;2022-07-29T11:57:45;5.35;;;3.00;;
47804;SDS011;33568;45.286;9.900;2022-07-29T12:00:21;10.20;;;5.45;;
47804;SDS011;33568;45.286;9.900;2022-07-29T12:02:56;4.43;;;2.83;;
47804;SDS011;33568;45.286;9.900;2022-07-29T12:08:17;8.68;;;3.85;;
47804;SDS011;33568;45.286;9.900;2022-07-29T12:13:14;6.45;;;3.70;;
47804;SDS011;33568;45.286;9.900;2022-07-29T12:15:42;6.85;;;4.32;;
47804;SDS011;33568;45.286;9.900;2022-07-29T12:18:18;8.32;;;4.70;;
47804;SDS011;33568;45.286;9.900;2022-07-29T12:20:46;6.70;;;3.60;;
47804;SDS011;33568;45.286;9.900;2022-07-29T12:23:13;4.82;;;3.58;;
47804;SDS011;33568;45.286;9.900;2022-07-29T12:25:42;7.60;;;3.50;;
47804;SDS011;33568;45.286;9.900;2022-07-29T12:28:10;9.48;;;4.43;;
47804;SDS011;33568;45.286;9.900;2022-07-29T12:30:43;10.60;;;3.90;;
47804;SDS011;33568;45.286;9.900;2022-07-29T12:33:17;5.82;;;3.78;;
47804;SDS011;33568;45.286;9.900;2022-07-29T12:35:52;8.20;;;4.03;;
47804;SDS011;33568;45.286;9.900;2022-07-29T12:38:20;8.02;;;3.60;;
47804;SDS011;33568;45.286;9.900;2022-07-29T12:40:47;4.28;;;3.22;;
47804;SDS011;33568;45.286;9.900;2022-07-29T12:43:21;6.35;;;3.65;;
47804;SDS011;33568;45.286;9.900;2022-07-29T12:45:53;6.95;;;3.40;;
47804;SDS011;33568;45.286;9.900;2022-07-29T12:48:37;6.95;;;3.80;;
47804;SDS011;33568;45.286;9.900;2022-07-29T12:51:06;7.47;;;3.50;;
47804;SDS011;33568;45.286;9.900;2022-07-29T12:53:34;7.57;;;3.42;;
47804;SDS011;33568;45.286;9.900;2022-07-29T12:56:02;8.25;;;2.85;;
47804;SDS011;33568;45.286;9.900;2022-07-29T12:58:34;3.80;;;2.42;;
47804;SDS011;33568;45.286;9.900;2022-07-29T13:01:09;4.43;;;3.50;;
47804;SDS011;33568;45.286;9.900;2022-07-29T13:11:43;3.90;;;3.40;;
47804;SDS011;33568;45.286;9.900;2022-07-29T13:14:29;5.88;;;3.67;;
47804;SDS011;33568;45.286;9.900;2022-07-29T13:17:01;6.18;;;3.20;;
47804;SDS011;33568;45.286;9.900;2022-07-29T13:19:37;9.07;;;3.00;;
47804;SDS011;33568;45.286;9.900;2022-07-29T13:24:56;8.77;;;2.80;;
47804;SDS011;33568;45.286;9.900;2022-07-29T13:27:25;7.43;;;3.60;;
47804;SDS011;33568;45.286;9.900;2022-07-29T13:29:55;11.95;;;3.78;;
47804;SDS011;33568;45.286;9.900;2022-07-29T13:32:23;5.38;;;3.30;;
47804;SDS011;33568;45.286;9.900;2022-07-29T13:34:51;5.10;;;3.00;;
47804;SDS011;33568;45.286;9.900;2022-07-29T13:37:18;6.53;;;3.20;;
47804;SDS011;33568;45.286;9.900;2022-07-29T13:39:45;7.72;;;2.80;;
47804;SDS011;33568;45.286;9.900;2022-07-29T13:42:11;6.10;;;2.92;;
47804;SDS011;33568;45.286;9.900;2022-07-29T13:44:39;4.22;;;2.90;;
47804;SDS011;33568;45.286;9.900;2022-07-29T13:47:06;5.97;;;3.20;;
47804;SDS011;33568;45.286;9.900;2022-07-29T13:49:33;7.03;;;3.38;;
47804;SDS011;33568;45.286;9.900;2022-07-29T13:52:00;6.78;;;2.60;;
47804;SDS011;33568;45.286;9.900;2022-07-29T13:54:27;5.70;;;2.60;;
47804;SDS011;33568;45.286;9.900;2022-07-29T13:56:53;8.68;;;3.03;;
47804;SDS011;33568;45.286;9.900;2022-07-29T13:59:19;2.80;;;2.55;;
47804;SDS011;33568;45.286;9.900;2022-07-29T14:01:46;6.97;;;2.67;;
47804;SDS011;33568;45.286;9.900;2022-07-29T14:04:12;3.95;;;2.50;;
47804;SDS011;33568;45.286;9.900;2022-07-29T14:06:38;4.15;;;2.35;;
47804;SDS011;33568;45.286;9.900;2022-07-29T14:09:05;6.45;;;3.13;;
47804;SDS011;33568;45.286;9.900;2022-07-29T14:11:34;10.73;;;3.30;;
47804;SDS011;33568;45.286;9.900;2022-07-29T14:14:01;8.63;;;3.20;;
47804;SDS011;33568;45.286;9.900;2022-07-29T14:16:27;7.07;;;3.25;;
47804;SDS011;33568;45.286;9.900;2022-07-29T14:18:54;6.80;;;3.30;;
47804;SDS011;33568;45.286;9.900;2022-07-29T14:21:22;9.50;;;3.40;;
47804;SDS011;33568;45.286;9.900;2022-07-29T14:23:49;11.77;;;3.28;;
47804;SDS011;33568;45.286;9.900;2022-07-29T14:26:17;2.78;;;2.40;;
47804;SDS011;33568;45.286;9.900;2022-07-29T14:28:43;10.02;;;3.35;;
47804;SDS011;33568;45.286;9.900;2022-07-29T14:31:10;3.75;;;2.72;;
47804;SDS011;33568;45.286;9.900;2022-07-29T14:33:36;8.57;;;3.22;;
47804;SDS011;33568;45.286;9.900;2022-07-29T14:36:03;9.15;;;3.80;;
47804;SDS011;33568;45.286;9.900;2022-07-29T14:38:31;4.05;;;3.05;;
47804;SDS011;33568;45.286;9.900;2022-07-29T14:40:57;8.82;;;3.20;;
47804;SDS011;33568;45.286;9.900;2022-07-29T14:43:24;4.03;;;2.53;;
47804;SDS011;33568;45.286;9.900;2022-07-29T14:45:50;5.57;;;3.80;;
47804;SDS011;33568;45.286;9.900;2022-07-29T14:48:16;7.88;;;4.32;;
47804;SDS011;33568;45.286;9.900;2022-07-29T14:50:43;6.50;;;3.55;;
47804;SDS011;33568;45.286;9.900;2022-07-29T14:53:09;12.73;;;4.30;;
47804;SDS011;33568;45.286;9.900;2022-07-29T14:55:37;10.30;;;5.13;;
47804;SDS011;33568;45.286;9.900;2022-07-29T14:58:05;13.35;;;4.47;;
47804;SDS011;33568;45.286;9.900;2022-07-29T15:00:31;15.05;;;6.53;;
47804;SDS011;33568;45.286;9.900;2022-07-29T15:02:59;10.95;;;4.63;;
47804;SDS011;33568;45.286;9.900;2022-07-29T15:05:26;12.93;;;5.15;;
47804;SDS011;33568;45.286;9.900;2022-07-29T15:07:52;14.07;;;5.90;;
47804;SDS011;33568;45.286;9.900;2022-07-29T15:10:19;10.15;;;6.22;;
47804;SDS011;33568;45.286;9.900;2022-07-29T15:12:46;13.13;;;5.25;;
47804;SDS011;33568;45.286;9.900;2022-07-29T15:15:12;9.65;;;4.53;;
47804;SDS011;33568;45.286;9.900;2022-07-29T15:17:38;16.05;;;5.13;;
47804;SDS011;33568;45.286;9.900;2022-07-29T15:20:05;8.55;;;4.53;;
47804;SDS011;33568;45.286;9.900;2022-07-29T15:22:32;11.45;;;4.25;;
47804;SDS011;33568;45.286;9.900;2022-07-29T15:24:58;8.35;;;4.55;;
47804;SDS011;33568;45.286;9.900;2022-07-29T15:27:25;9.07;;;3.85;;
47804;SDS011;33568;45.286;9.900;2022-07-29T15:29:51;6.47;;;3.40;;
47804;SDS011;33568;45.286;9.900;2022-07-29T15:32:17;6.47;;;3.45;;
47804;SDS011;33568;45.286;9.900;2022-07-29T15:34:44;6.68;;;3.58;;
47804;SDS011;33568;45.286;9.900;2022-07-29T15:37:10;6.47;;;3.90;;
47804;SDS011;33568;45.286;9.900;2022-07-29T15:39:37;8.25;;;3.10;;
47804;SDS011;33568;45.286;9.900;2022-07-29T15:42:04;5.82;;;3.15;;
47804;SDS011;33568;45.286;9.900;2022-07-29T15:44:30;7.57;;;3.08;;
47804;SDS011;33568;45.286;9.900;2022-07-29T15:46:57;5.30;;;3.35;;
47804;SDS011;33568;45.286;9.900;2022-07-29T15:52:08;6.95;;;3.03;;
47804;SDS011;33568;45.286;9.900;2022-07-29T15:54:36;7.45;;;3.58;;
47804;SDS011;33568;45.286;9.900;2022-07-29T15:57:04;7.88;;;3.20;;
47804;SDS011;33568;45.286;9.900;2022-07-29T15:59:31;6.10;;;3.35;;
47804;SDS011;33568;45.286;9.900;2022-07-29T16:01:58;7.43;;;3.28;;
47804;SDS011;33568;45.286;9.900;2022-07-29T16:04:26;9.70;;;3.20;;
47804;SDS011;33568;45.286;9.900;2022-07-29T16:06:52;4.97;;;3.42;;
47804;SDS011;33568;45.286;9.900;2022-07-29T16:09:19;6.53;;;3.42;;
47804;SDS011;33568;45.286;9.900;2022-07-29T16:11:46;5.95;;;3.35;;
47804;SDS011;33568;45.286;9.900;2022-07-29T16:14:16;4.95;;;3.33;;